CCQ3 weather

Debert Airport
Debert, Nova Scotia, Canada

Public forecast

Using degrees Celsius for public forecast. Weather courtesy of forecast.io.

METAR (pilot weather report)

Closest report is Halifax / Stanfield International Airport, 32.4 nm (59.9 km) S. Retrieved 2019/04/19 17:28 UTC (42 minutes ago):

CYHZ 191728Z 21017G26KT 1/2SM R23/3500FT/U R14/5000VP6000FT/D FG VV001 10/10 A2987 RMK FG8 SLP122

TAF (pilot weather forecast)

Closest forecast is Halifax / Stanfield International Airport, 32.4 nm (59.9 km) S. Retrieved 2019/04/19 18:42 UTC (0 seconds ago):

TAF CYHZ 191739Z 1918/2018 21015G25KT 3/8SM FG VV001 TEMPO 1918/1923 3/4SM -DZ BR VV002 FM192300 21015KT 1/4SM -DZ FG OVC001 FM201200 21015KT 1/2SM -RA -DZ FG VV002 RMK NXT FCST BY 192100Z